createdAt,value
2022-12-04T00:01:26.375Z,88.45
2022-12-04T00:04:00.043Z,65.53
2022-12-04T00:06:28.815Z,89.13
2022-12-04T00:08:56.558Z,87.20
2022-12-04T00:11:27.807Z,92.65
2022-12-04T00:13:56.738Z,92.25
2022-12-04T00:16:30.635Z,88.90
2022-12-04T00:18:58.903Z,92.80
2022-12-04T00:21:26.291Z,93.05
2022-12-04T00:23:54.725Z,94.50
2022-12-04T00:26:28.927Z,95.97
2022-12-04T00:28:57.481Z,103.25
2022-12-04T00:31:28.030Z,94.15
2022-12-04T00:33:55.515Z,95.28
2022-12-04T00:36:25.731Z,86.07
2022-12-04T00:38:53.365Z,95.55
2022-12-04T00:41:24.232Z,92.57
2022-12-04T00:43:52.367Z,97.00
2022-12-04T00:46:20.871Z,94.70
2022-12-04T00:48:48.123Z,97.15
2022-12-04T00:51:20.638Z,91.13
2022-12-04T00:53:47.890Z,97.80
2022-12-04T00:56:26.722Z,95.47
2022-12-04T00:58:56.524Z,94.85
2022-12-04T01:01:25.001Z,98.20
2022-12-04T01:03:52.555Z,99.93
2022-12-04T01:06:26.648Z,104.43
2022-12-04T01:08:56.159Z,95.53
2022-12-04T01:11:26.950Z,112.57
2022-12-04T01:13:54.421Z,122.85
2022-12-04T01:16:31.936Z,119.45
2022-12-04T01:18:59.069Z,113.18
2022-12-04T01:21:26.271Z,115.32
2022-12-04T01:23:53.641Z,108.85
2022-12-04T01:26:20.733Z,109.82
2022-12-04T01:28:47.811Z,117.20
2022-12-04T01:31:19.641Z,110.32
2022-12-04T01:33:48.798Z,103.90
2022-12-04T01:36:23.247Z,104.47
2022-12-04T01:38:50.928Z,112.80
2022-12-04T01:41:25.958Z,108.78
2022-12-04T01:44:19.283Z,103.40
2022-12-04T01:46:56.003Z,105.68
2022-12-04T01:49:44.961Z,114.90
2022-12-04T01:52:19.149Z,112.55
2022-12-04T01:54:51.576Z,110.45
2022-12-04T01:57:22.014Z,109.20
2022-12-04T02:00:12.331Z,119.57
2022-12-04T02:02:42.935Z,117.00
2022-12-04T02:05:15.291Z,116.82
2022-12-04T02:07:45.870Z,93.82
2022-12-04T02:10:14.010Z,118.43
2022-12-04T02:13:17.065Z,124.32
2022-12-04T02:16:05.306Z,112.82
2022-12-04T02:18:45.757Z,118.43
2022-12-04T02:21:44.987Z,107.25
2022-12-04T02:24:32.767Z,111.65
2022-12-04T02:27:27.685Z,106.85
2022-12-04T02:30:05.403Z,110.07
2022-12-04T02:43:52.467Z,127.22
2022-12-04T02:49:14.551Z,118.35
2022-12-04T02:51:45.250Z,106.97
2022-12-04T02:54:32.690Z,105.30
2022-12-04T02:57:02.923Z,106.82
2022-12-04T02:59:38.107Z,120.93
2022-12-04T03:02:17.409Z,123.03
2022-12-04T03:04:50.637Z,120.63
2022-12-04T03:07:42.847Z,119.60
2022-12-04T03:10:18.505Z,113.00
2022-12-04T03:13:09.035Z,123.57
2022-12-04T03:15:49.423Z,116.45
2022-12-04T03:18:22.566Z,117.10
2022-12-04T03:21:00.009Z,113.78
2022-12-04T03:23:35.386Z,114.13
2022-12-04T03:26:12.475Z,114.10
2022-12-04T03:28:57.334Z,113.88
2022-12-04T03:31:48.911Z,120.80
2022-12-04T03:34:33.442Z,112.65
2022-12-04T03:37:10.716Z,120.18
2022-12-04T03:40:00.332Z,110.40
2022-12-04T03:42:54.147Z,114.40
2022-12-04T03:45:34.498Z,120.50
2022-12-04T03:48:46.597Z,120.15
2022-12-04T03:51:40.467Z,115.70
2022-12-04T03:54:23.920Z,122.28
2022-12-04T03:57:00.790Z,119.63
2022-12-04T04:00:01.936Z,116.35
2022-12-04T04:02:39.787Z,117.63
2022-12-04T04:05:12.378Z,124.57
2022-12-04T04:08:17.870Z,130.85
2022-12-04T04:10:45.847Z,117.38
2022-12-04T04:13:36.931Z,141.80
2022-12-04T04:16:27.803Z,129.57
2022-12-04T04:19:17.134Z,137.45
2022-12-04T04:22:07.297Z,118.38
2022-12-04T04:24:45.236Z,122.97
2022-12-04T04:27:12.712Z,140.93
2022-12-04T04:29:41.648Z,131.32
2022-12-04T04:32:37.825Z,138.45
2022-12-04T04:35:32.367Z,136.07
2022-12-04T04:38:25.583Z,127.22
2022-12-04T04:41:28.379Z,127.68
2022-12-04T04:44:15.508Z,129.43
2022-12-04T04:46:55.487Z,127.30
2022-12-04T04:49:28.198Z,137.63
2022-12-04T04:51:56.130Z,125.75
2022-12-04T04:54:24.475Z,150.85
2022-12-04T04:56:51.604Z,131.85
2022-12-04T04:59:18.516Z,143.13
2022-12-04T05:01:47.299Z,135.63
2022-12-04T05:04:14.496Z,142.20
2022-12-04T05:06:41.758Z,144.45
2022-12-04T05:09:08.801Z,136.50
2022-12-04T05:11:35.784Z,138.57
2022-12-04T05:14:02.765Z,150.00
2022-12-04T05:16:29.728Z,147.63
2022-12-04T05:19:15.075Z,147.48
2022-12-04T05:21:42.127Z,148.05
2022-12-04T05:24:09.739Z,164.27
2022-12-04T05:26:36.725Z,150.60
2022-12-04T05:29:03.721Z,153.18
2022-12-04T05:31:30.751Z,164.48
2022-12-04T05:33:57.771Z,179.30
2022-12-04T05:36:24.683Z,166.70
2022-12-04T05:38:51.679Z,149.77
2022-12-04T05:41:18.737Z,158.65
2022-12-04T05:43:45.810Z,156.77
2022-12-04T05:46:12.791Z,168.27
2022-12-04T05:48:39.927Z,156.45
2022-12-04T05:51:09.719Z,164.43
2022-12-04T05:53:38.303Z,197.32
2022-12-04T05:56:07.597Z,190.18
2022-12-04T05:58:38.750Z,207.10
2022-12-04T06:01:15.054Z,179.68
2022-12-04T06:03:43.403Z,164.52
2022-12-04T06:06:28.959Z,163.30
2022-12-04T06:08:58.766Z,174.55
2022-12-04T06:11:32.939Z,192.23
2022-12-04T06:14:02.396Z,182.93
2022-12-04T06:16:36.671Z,170.05
2022-12-04T06:19:09.343Z,171.20
2022-12-04T06:21:39.915Z,163.63
2022-12-04T06:24:08.835Z,175.73
2022-12-04T06:26:35.841Z,172.70
2022-12-04T06:29:02.867Z,166.02
2022-12-04T06:31:30.398Z,172.13
2022-12-04T06:33:58.832Z,176.38
2022-12-04T06:36:25.960Z,151.25
2022-12-04T06:38:56.546Z,172.50
2022-12-04T06:41:26.457Z,154.15
2022-12-04T06:43:53.938Z,161.80
2022-12-04T06:46:33.511Z,161.80
2022-12-04T06:49:02.647Z,154.55
2022-12-04T06:51:36.820Z,158.27
2022-12-04T07:05:17.451Z,188.93
2022-12-04T07:07:44.478Z,170.65
2022-12-04T07:10:11.927Z,168.35
2022-12-04T07:12:38.845Z,159.50
2022-12-04T07:15:06.551Z,165.18
2022-12-04T07:17:33.484Z,162.70
2022-12-04T07:20:00.447Z,149.05
2022-12-04T07:22:28.243Z,145.38
2022-12-04T07:24:55.233Z,146.52
2022-12-04T07:27:22.157Z,143.25
2022-12-04T07:29:52.997Z,136.20
2022-12-04T07:32:20.315Z,138.20
2022-12-04T07:34:47.267Z,152.70
2022-12-04T07:37:17.138Z,136.13
2022-12-04T07:39:44.118Z,162.18
2022-12-04T07:42:11.017Z,149.98
2022-12-04T07:44:38.018Z,133.40
2022-12-04T07:47:05.284Z,145.20
2022-12-04T07:49:32.269Z,141.40
2022-12-04T07:51:59.244Z,138.73
2022-12-04T07:54:26.252Z,139.60
2022-12-04T07:56:53.176Z,145.68
2022-12-04T07:59:20.255Z,136.88
2022-12-04T08:01:47.459Z,134.35
2022-12-04T08:04:14.562Z,133.52
2022-12-04T08:06:41.790Z,147.00
2022-12-04T08:09:10.274Z,139.85
2022-12-04T08:11:37.678Z,139.43
2022-12-04T08:14:06.223Z,139.77
2022-12-04T08:16:33.909Z,126.65
2022-12-04T08:19:01.514Z,140.00
2022-12-04T08:21:32.024Z,122.68
2022-12-04T08:24:00.648Z,127.78
2022-12-04T08:26:30.932Z,124.53
2022-12-04T08:28:58.333Z,138.35
2022-12-04T08:31:28.369Z,117.15
2022-12-04T08:33:58.945Z,132.85
2022-12-04T08:36:27.141Z,133.38
2022-12-04T08:38:54.753Z,130.13
2022-12-04T08:41:24.666Z,128.90
2022-12-04T08:43:57.908Z,138.75
2022-12-04T08:46:27.526Z,138.32
2022-12-04T08:48:55.739Z,139.43
2022-12-04T08:51:29.899Z,138.52
2022-12-04T08:54:04.611Z,138.68
2022-12-04T08:56:33.527Z,137.38
2022-12-04T08:59:01.664Z,137.93
2022-12-04T09:01:30.067Z,130.32
2022-12-04T09:03:57.656Z,129.15
2022-12-04T09:06:24.923Z,140.10
2022-12-04T09:08:57.040Z,124.50
2022-12-04T09:11:27.630Z,120.10
2022-12-04T09:13:56.251Z,122.82
2022-12-04T09:16:25.978Z,124.60
2022-12-04T09:18:53.539Z,124.85
2022-12-04T09:21:23.930Z,127.10
2022-12-04T09:23:52.508Z,124.93
2022-12-04T09:26:27.711Z,119.85
2022-12-04T09:28:56.453Z,123.32
2022-12-04T09:31:24.967Z,123.10
2022-12-04T09:34:01.724Z,125.50
2022-12-04T09:36:29.345Z,118.22
2022-12-04T09:38:57.763Z,119.07
2022-12-04T09:41:46.799Z,120.05
2022-12-04T09:45:00.741Z,122.50
2022-12-04T09:47:37.193Z,119.80
2022-12-04T09:50:16.455Z,131.05
2022-12-04T09:53:27.716Z,122.60
2022-12-04T09:56:13.947Z,121.05
2022-12-04T09:58:52.023Z,122.03
2022-12-04T10:01:23.789Z,109.80
2022-12-04T10:03:53.004Z,129.93
2022-12-04T10:06:25.951Z,124.32
2022-12-04T10:09:16.599Z,118.97
2022-12-04T10:11:56.233Z,120.40
2022-12-04T10:14:45.867Z,109.82
2022-12-04T10:17:53.138Z,117.15
2022-12-04T10:21:04.943Z,130.10
2022-12-04T10:24:16.078Z,119.60
2022-12-04T10:26:48.937Z,116.07
2022-12-04T10:29:24.357Z,123.50
2022-12-04T10:31:57.117Z,120.93
2022-12-04T10:34:29.089Z,114.85
2022-12-04T10:37:06.452Z,110.72
2022-12-04T10:39:44.945Z,112.03
2022-12-04T10:42:30.353Z,117.28
2022-12-04T10:44:57.924Z,118.93
2022-12-04T10:47:28.443Z,116.93
2022-12-04T10:50:14.232Z,107.55
2022-12-04T10:52:42.243Z,105.68
2022-12-04T10:55:09.911Z,106.18
2022-12-04T10:57:44.466Z,108.82
2022-12-04T11:00:25.370Z,113.15
2022-12-04T11:02:55.251Z,112.25
2022-12-04T11:05:44.129Z,103.47
2022-12-04T11:08:44.017Z,114.78
2022-12-04T11:11:16.367Z,116.20
2022-12-04T11:13:44.475Z,107.30
2022-12-04T11:16:44.799Z,115.32
2022-12-04T11:19:32.151Z,105.60
2022-12-04T11:22:19.750Z,109.65
2022-12-04T11:24:55.190Z,111.40
2022-12-04T11:27:32.114Z,108.15
2022-12-04T11:30:08.575Z,110.90
2022-12-04T11:32:44.043Z,106.25
2022-12-04T11:35:24.805Z,116.68
2022-12-04T11:38:15.462Z,121.78
2022-12-04T11:40:52.546Z,116.57
2022-12-04T11:43:20.600Z,120.35
2022-12-04T11:46:03.143Z,121.63
2022-12-04T11:48:41.379Z,101.68
2022-12-04T11:51:36.793Z,112.80
2022-12-04T11:54:36.181Z,123.57
2022-12-04T11:57:31.825Z,120.25
2022-12-04T12:00:15.213Z,112.05
2022-12-04T12:03:18.110Z,110.53
2022-12-04T12:06:32.976Z,105.03
2022-12-04T12:09:24.261Z,118.50
2022-12-04T12:12:19.484Z,117.07
2022-12-04T12:15:11.923Z,98.63
2022-12-04T12:18:10.093Z,119.70
2022-12-04T12:21:16.030Z,109.65
2022-12-04T12:24:12.091Z,117.68
2022-12-04T12:26:48.087Z,101.60
2022-12-04T12:29:21.117Z,114.32
2022-12-04T12:34:50.915Z,110.72
2022-12-04T12:37:41.803Z,277.25
2022-12-04T12:40:34.841Z,210.77
2022-12-04T12:43:14.268Z,204.07
2022-12-04T12:46:05.954Z,128.45
2022-12-04T12:49:00.897Z,176.90
2022-12-04T12:52:16.911Z,123.50
2022-12-04T12:55:03.307Z,101.65
2022-12-04T12:57:37.927Z,90.60
2022-12-04T13:00:17.697Z,99.32
2022-12-04T13:02:59.221Z,103.75
2022-12-04T13:05:46.807Z,98.15
2022-12-04T13:08:32.886Z,101.78
2022-12-04T13:11:21.711Z,95.97
2022-12-04T13:13:57.685Z,105.85
2022-12-04T13:16:37.590Z,103.75
2022-12-04T13:20:03.064Z,103.47
2022-12-04T13:22:40.085Z,99.03
2022-12-04T13:25:40.572Z,110.60
2022-12-04T13:28:36.461Z,106.32
2022-12-04T13:31:42.156Z,106.93
2022-12-04T13:47:04.375Z,124.80
2022-12-04T13:49:34.174Z,122.40
2022-12-04T13:52:05.481Z,114.63
2022-12-04T13:54:37.497Z,113.57
2022-12-04T13:57:21.987Z,117.47
2022-12-04T13:59:50.017Z,112.30
2022-12-04T14:02:35.807Z,111.15
2022-12-04T14:05:11.352Z,103.65
2022-12-04T14:08:00.854Z,108.15
2022-12-04T14:10:37.903Z,104.75
2022-12-04T14:13:23.467Z,113.38
2022-12-04T14:16:16.084Z,100.40
2022-12-04T14:18:53.845Z,115.43
2022-12-04T14:21:21.112Z,114.97
2022-12-04T14:23:48.543Z,113.45
2022-12-04T14:29:49.626Z,117.18
2022-12-04T14:32:28.787Z,111.68
2022-12-04T14:34:57.939Z,116.43
2022-12-04T14:37:34.447Z,130.95
2022-12-04T14:40:07.093Z,121.85
2022-12-04T14:42:38.994Z,126.60
2022-12-04T14:45:58.346Z,124.18
2022-12-04T14:49:00.416Z,108.78
2022-12-04T14:51:41.728Z,112.07
2022-12-04T14:54:36.409Z,116.53
2022-12-04T14:57:53.373Z,118.95
2022-12-04T15:00:23.720Z,111.60
2022-12-04T15:02:56.117Z,117.53
2022-12-04T15:05:29.399Z,114.05
2022-12-04T15:08:05.056Z,117.28
2022-12-04T15:10:53.723Z,108.55
2022-12-04T15:13:31.987Z,112.45
2022-12-04T15:16:09.270Z,103.95
2022-12-04T15:18:39.535Z,119.35
2022-12-04T15:21:11.547Z,98.38
2022-12-04T15:23:42.087Z,113.32
2022-12-04T15:26:20.989Z,107.45
2022-12-04T15:28:58.633Z,109.68
2022-12-04T15:31:34.830Z,116.50
2022-12-04T15:34:08.903Z,108.40
2022-12-04T15:36:49.679Z,110.82
2022-12-04T15:39:24.456Z,107.95
2022-12-04T15:41:52.222Z,110.72
2022-12-04T15:44:35.385Z,119.72
2022-12-04T15:47:16.953Z,117.10
2022-12-04T15:49:43.953Z,110.25
2022-12-04T15:52:11.074Z,112.03
2022-12-04T15:54:54.543Z,125.35
2022-12-04T15:57:41.260Z,114.78
2022-12-04T16:00:52.644Z,138.85
2022-12-04T16:03:31.128Z,122.82
2022-12-04T16:06:27.630Z,135.20
2022-12-04T16:08:58.831Z,122.90
2022-12-04T16:11:39.388Z,123.03
2022-12-04T16:14:09.130Z,109.03
2022-12-04T16:16:42.065Z,128.68
2022-12-04T16:21:41.733Z,117.25
2022-12-04T16:24:13.031Z,117.35
2022-12-04T16:26:41.298Z,109.65
2022-12-04T16:29:09.265Z,146.80
2022-12-04T16:31:38.695Z,122.88
2022-12-04T16:34:05.947Z,122.10
2022-12-04T16:36:33.197Z,120.38
2022-12-04T16:39:00.257Z,135.88
2022-12-04T16:41:27.236Z,114.38
2022-12-04T16:44:01.847Z,126.00
2022-12-04T16:46:30.202Z,111.88
2022-12-04T16:48:59.520Z,133.77
2022-12-04T16:51:30.037Z,129.20
2022-12-04T16:53:57.186Z,149.18
2022-12-04T16:56:25.969Z,133.27
2022-12-04T16:59:14.059Z,119.55
2022-12-04T17:02:06.448Z,122.53
2022-12-04T17:04:33.608Z,128.07
2022-12-04T17:07:00.828Z,121.35
2022-12-04T17:09:27.952Z,111.90
2022-12-04T17:11:56.587Z,118.65
2022-12-04T17:14:24.562Z,121.47
2022-12-04T17:16:53.816Z,116.25
2022-12-04T17:19:23.420Z,117.68
2022-12-04T17:21:50.490Z,115.55
2022-12-04T17:24:18.092Z,116.85
2022-12-04T17:26:45.119Z,121.55
2022-12-04T17:29:12.092Z,116.93
2022-12-04T17:31:39.314Z,129.90
2022-12-04T17:34:06.374Z,118.85
2022-12-04T17:36:33.506Z,118.05
2022-12-04T17:39:05.379Z,117.55
2022-12-04T17:41:34.880Z,122.05
2022-12-04T17:44:02.048Z,114.50
2022-12-04T17:46:29.527Z,123.05
2022-12-04T17:48:59.427Z,123.53
2022-12-04T17:51:28.892Z,115.47
2022-12-04T17:53:56.255Z,117.82
2022-12-04T17:56:24.702Z,125.32
2022-12-04T17:58:52.072Z,117.40
2022-12-04T18:01:24.100Z,125.53
2022-12-04T18:04:03.905Z,118.50
2022-12-04T18:06:35.792Z,123.45
2022-12-04T18:09:05.460Z,126.00
2022-12-04T18:11:35.814Z,119.70
2022-12-04T18:14:13.176Z,109.43
2022-12-04T18:16:53.120Z,112.05
2022-12-04T18:19:24.228Z,123.20
2022-12-04T18:21:55.695Z,122.43
2022-12-04T18:24:31.654Z,121.70
2022-12-04T18:26:59.870Z,121.43
2022-12-04T18:29:27.440Z,116.43
2022-12-04T18:31:54.943Z,124.47
2022-12-04T18:34:22.524Z,114.72
2022-12-04T18:36:50.280Z,125.20
2022-12-04T18:39:21.367Z,114.57
2022-12-04T18:41:49.672Z,120.75
2022-12-04T18:44:20.583Z,110.65
2022-12-04T18:46:49.885Z,116.07
2022-12-04T18:49:16.976Z,123.93
2022-12-04T18:51:49.658Z,132.30
2022-12-04T18:54:22.968Z,120.63
2022-12-04T19:08:50.649Z,140.57
2022-12-04T19:11:17.662Z,111.95
2022-12-04T19:13:54.161Z,109.18
2022-12-04T19:16:25.637Z,98.32
2022-12-04T19:18:53.179Z,111.10
2022-12-04T19:21:20.214Z,133.52
2022-12-04T19:23:56.692Z,113.22
2022-12-04T19:26:24.377Z,86.68
2022-12-04T19:28:52.069Z,116.72
2022-12-04T19:31:22.912Z,116.40
2022-12-04T19:33:51.520Z,123.50
2022-12-04T19:36:21.499Z,122.00
2022-12-04T19:38:50.935Z,100.68
2022-12-04T19:41:24.387Z,128.75
2022-12-04T19:43:56.331Z,119.00
2022-12-04T19:46:27.284Z,129.35
2022-12-04T19:49:01.428Z,112.72
2022-12-04T19:51:32.125Z,124.10
2022-12-04T19:54:01.113Z,118.53
2022-12-04T19:56:32.288Z,131.15
2022-12-04T19:59:07.480Z,103.95
2022-12-04T20:01:35.755Z,108.38
2022-12-04T20:04:07.637Z,99.97
2022-12-04T20:06:45.630Z,96.50
2022-12-04T20:09:18.459Z,88.60
2022-12-04T20:11:45.746Z,90.32
2022-12-04T20:14:13.027Z,89.57
2022-12-04T20:16:40.957Z,87.40
2022-12-04T20:19:13.471Z,80.20
2022-12-04T20:21:40.772Z,88.95
2022-12-04T20:24:08.464Z,93.72
2022-12-04T20:26:41.876Z,83.60
2022-12-04T20:29:14.325Z,92.15
2022-12-04T20:31:47.655Z,91.43
2022-12-04T20:34:18.923Z,87.70
2022-12-04T20:36:48.694Z,87.55
2022-12-04T20:39:21.145Z,92.35
2022-12-04T20:41:48.327Z,95.60
2022-12-04T20:44:18.516Z,86.80
2022-12-04T20:46:46.277Z,93.18
2022-12-04T20:49:22.026Z,99.07
2022-12-04T20:51:51.873Z,95.65
2022-12-04T20:54:21.747Z,90.40
2022-12-04T20:56:49.958Z,98.53
2022-12-04T20:59:19.561Z,96.47
2022-12-04T21:01:55.828Z,100.70
2022-12-04T21:04:23.346Z,91.68
2022-12-04T21:06:50.559Z,94.30
2022-12-04T21:09:23.099Z,82.13
2022-12-04T21:11:54.857Z,72.22
2022-12-04T21:14:50.706Z,71.35
2022-12-04T21:17:19.906Z,76.05
2022-12-04T21:19:49.989Z,86.18
2022-12-04T21:22:19.200Z,79.20
2022-12-04T21:24:46.205Z,76.45
2022-12-04T21:27:18.936Z,86.78
2022-12-04T21:29:48.664Z,80.97
2022-12-04T21:32:20.215Z,85.78
2022-12-04T21:34:47.496Z,87.05
2022-12-04T21:37:14.699Z,101.20
2022-12-04T21:39:43.315Z,94.07
2022-12-04T21:42:29.314Z,102.97
2022-12-04T21:45:00.466Z,128.90
2022-12-04T21:47:28.149Z,111.82
2022-12-04T21:49:55.522Z,99.22
2022-12-04T21:52:23.187Z,94.10
2022-12-04T21:54:54.397Z,98.70
2022-12-04T21:57:22.839Z,112.80
2022-12-04T21:59:52.498Z,101.60
2022-12-04T22:02:20.350Z,93.45
2022-12-04T22:04:47.934Z,83.72
2022-12-04T22:07:15.124Z,92.80
2022-12-04T22:09:42.240Z,92.70
2022-12-04T22:14:56.382Z,97.30
2022-12-04T22:17:23.396Z,92.60
2022-12-04T22:19:51.517Z,87.97
2022-12-04T22:22:18.615Z,89.82
2022-12-04T22:24:47.630Z,85.80
2022-12-04T22:27:15.442Z,77.80
2022-12-04T22:29:50.352Z,79.03
2022-12-04T22:32:19.809Z,78.82
2022-12-04T22:34:49.851Z,86.95
2022-12-04T22:37:17.343Z,88.15
2022-12-04T22:39:44.332Z,95.65
2022-12-04T22:42:11.349Z,89.97
2022-12-04T22:44:38.750Z,91.85
2022-12-04T22:47:05.765Z,81.70
2022-12-04T22:49:33.083Z,88.32
2022-12-04T22:52:00.103Z,87.30
2022-12-04T22:54:27.104Z,77.35
2022-12-04T22:56:54.087Z,73.80
2022-12-04T22:59:21.040Z,76.70
2022-12-04T23:01:48.058Z,74.68
2022-12-04T23:04:15.079Z,71.22
2022-12-04T23:06:42.470Z,77.25
2022-12-04T23:09:15.168Z,73.75
2022-12-04T23:11:43.623Z,72.05
2022-12-04T23:14:15.385Z,72.10
2022-12-04T23:16:42.951Z,69.15
2022-12-04T23:19:14.579Z,69.75
2022-12-04T23:21:42.360Z,69.97
2022-12-04T23:24:11.241Z,67.47
2022-12-04T23:26:46.157Z,75.97
2022-12-04T23:29:37.062Z,73.80
2022-12-04T23:32:01.527Z,77.57
2022-12-04T23:34:28.606Z,77.85
2022-12-04T23:36:55.545Z,76.15
2022-12-04T23:39:22.529Z,81.60
2022-12-04T23:41:49.476Z,78.18
2022-12-04T23:44:16.474Z,85.05
2022-12-04T23:46:43.452Z,91.32
2022-12-04T23:49:11.057Z,85.15
2022-12-04T23:51:38.151Z,83.90
2022-12-04T23:54:05.598Z,80.47
2022-12-04T23:56:32.771Z,85.22
2022-12-04T23:58:59.863Z,79.97
